createdAt,value
2022-11-14T00:01:22.755Z,4.63
2022-11-14T00:03:52.165Z,3.70
2022-11-14T00:06:20.208Z,7.53
2022-11-14T00:08:48.196Z,7.78
2022-11-14T00:11:16.289Z,5.85
2022-11-14T00:13:46.537Z,6.20
2022-11-14T00:16:14.561Z,8.82
2022-11-14T00:18:42.624Z,9.50
2022-11-14T00:21:10.672Z,7.60
2022-11-14T00:23:38.663Z,9.50
2022-11-14T00:26:06.720Z,12.65
2022-11-14T00:28:34.661Z,16.90
2022-11-14T00:31:04.069Z,14.07
2022-11-14T00:33:32.060Z,10.55
2022-11-14T00:36:00.013Z,17.27
2022-11-14T00:38:28.379Z,9.93
2022-11-14T00:40:56.708Z,8.55
2022-11-14T00:43:24.682Z,10.40
2022-11-14T00:45:52.725Z,9.10
2022-11-14T00:48:22.303Z,8.43
2022-11-14T00:50:50.417Z,8.60
2022-11-14T00:53:18.494Z,6.70
2022-11-14T00:55:46.580Z,7.43
2022-11-14T00:58:14.569Z,7.57
2022-11-14T01:00:42.672Z,33.70
2022-11-14T01:03:11.079Z,53.00
2022-11-14T01:05:43.662Z,56.58
2022-11-14T01:08:11.982Z,54.30
2022-11-14T01:10:41.978Z,22.27
2022-11-14T01:13:10.225Z,61.10
2022-11-14T01:15:40.501Z,77.95
2022-11-14T01:18:08.868Z,38.10
2022-11-14T01:20:39.406Z,51.58
2022-11-14T01:23:08.891Z,23.15
2022-11-14T01:25:37.999Z,30.40
2022-11-14T01:28:07.580Z,18.58
2022-11-14T01:30:35.669Z,12.40
2022-11-14T01:33:04.062Z,21.00
2022-11-14T01:35:32.337Z,38.85
2022-11-14T01:38:00.304Z,107.30
2022-11-14T01:40:30.400Z,12.13
2022-11-14T01:43:25.441Z,13.75
2022-11-14T01:45:57.554Z,15.68
2022-11-14T01:48:31.535Z,11.70
2022-11-14T01:51:04.538Z,11.20
2022-11-14T01:53:32.996Z,10.60
2022-11-14T01:56:07.351Z,13.35
2022-11-14T01:58:36.896Z,81.88
2022-11-14T02:01:05.429Z,36.70
2022-11-14T02:03:37.131Z,62.03
2022-11-14T02:06:08.062Z,12.20
2022-11-14T02:08:36.569Z,12.48
2022-11-14T02:11:06.362Z,12.27
2022-11-14T02:13:34.369Z,12.15
2022-11-14T02:16:02.403Z,15.05
2022-11-14T02:18:30.718Z,11.35
2022-11-14T02:21:00.397Z,15.65
2022-11-14T02:23:29.967Z,11.57
2022-11-14T02:25:58.041Z,13.95
2022-11-14T02:28:27.058Z,11.02
2022-11-14T02:30:55.617Z,10.63
2022-11-14T02:33:23.617Z,10.38
2022-11-14T02:35:51.735Z,10.52
2022-11-14T02:38:21.161Z,8.80
2022-11-14T02:40:49.196Z,8.30
2022-11-14T02:43:17.236Z,8.77
2022-11-14T02:45:45.321Z,11.55
2022-11-14T02:48:13.393Z,8.98
2022-11-14T02:50:41.376Z,8.93
2022-11-14T02:53:09.465Z,13.57
2022-11-14T02:55:38.876Z,12.35
2022-11-14T02:58:07.585Z,13.43
2022-11-14T03:00:38.587Z,9.88
2022-11-14T03:03:16.052Z,9.38
2022-11-14T03:05:44.133Z,12.88
2022-11-14T03:08:12.205Z,15.65
2022-11-14T03:10:41.685Z,12.35
2022-11-14T03:13:09.699Z,10.73
2022-11-14T03:15:38.703Z,11.43
2022-11-14T03:18:06.675Z,13.38
2022-11-14T03:20:35.699Z,13.45
2022-11-14T03:23:03.935Z,11.77
2022-11-14T03:25:32.034Z,19.70
2022-11-14T03:28:01.538Z,13.63
2022-11-14T03:30:29.654Z,15.90
2022-11-14T03:32:58.030Z,16.58
2022-11-14T03:35:26.164Z,8.75
2022-11-14T03:37:56.589Z,12.43
2022-11-14T03:40:25.027Z,9.85
2022-11-14T03:42:53.062Z,9.30
2022-11-14T03:45:22.503Z,7.93
2022-11-14T03:47:50.585Z,13.45
2022-11-14T03:50:19.181Z,7.47
2022-11-14T03:52:50.174Z,7.20
2022-11-14T03:55:18.192Z,8.30
2022-11-14T03:57:46.283Z,9.85
2022-11-14T04:00:14.915Z,12.02
2022-11-14T04:02:44.366Z,10.07
2022-11-14T04:05:12.495Z,12.55
2022-11-14T04:07:40.742Z,10.93
2022-11-14T04:10:09.679Z,10.65
2022-11-14T04:12:37.695Z,11.50
2022-11-14T04:15:06.590Z,10.63
2022-11-14T04:17:39.598Z,10.35
2022-11-14T04:20:10.741Z,11.75
2022-11-14T04:22:39.169Z,9.30
2022-11-14T04:25:08.931Z,13.52
2022-11-14T04:27:36.938Z,10.35
2022-11-14T04:30:05.951Z,9.75
2022-11-14T04:32:34.046Z,10.18
2022-11-14T04:35:02.090Z,9.95
2022-11-14T04:37:31.512Z,10.05
2022-11-14T04:40:02.512Z,12.10
2022-11-14T04:42:30.505Z,13.85
2022-11-14T04:44:58.551Z,8.68
2022-11-14T04:47:26.518Z,14.00
2022-11-14T04:49:54.567Z,7.80
2022-11-14T04:52:22.589Z,11.00
2022-11-14T04:54:51.969Z,9.80
2022-11-14T04:57:19.931Z,16.00
2022-11-14T04:59:47.969Z,11.52
2022-11-14T05:02:15.948Z,12.35
2022-11-14T05:04:45.826Z,14.15
2022-11-14T05:07:14.485Z,11.20
2022-11-14T05:09:42.536Z,12.43
2022-11-14T05:12:11.918Z,11.45
2022-11-14T05:14:39.995Z,11.70
2022-11-14T05:17:08.005Z,10.27
2022-11-14T05:19:36.008Z,11.43
2022-11-14T05:22:04.006Z,10.75
2022-11-14T05:24:32.208Z,11.80
2022-11-14T05:27:00.339Z,9.02
2022-11-14T05:29:29.807Z,12.32
2022-11-14T05:31:57.991Z,10.88
2022-11-14T05:34:26.300Z,10.65
2022-11-14T05:36:54.278Z,11.43
2022-11-14T05:39:23.875Z,16.95
2022-11-14T05:41:51.812Z,15.57
2022-11-14T05:44:19.785Z,14.02
2022-11-14T05:46:49.143Z,17.95
2022-11-14T05:49:21.760Z,12.25
2022-11-14T05:51:50.193Z,13.63
2022-11-14T05:54:18.293Z,13.10
2022-11-14T05:56:46.319Z,13.63
2022-11-14T05:59:14.304Z,15.57
2022-11-14T06:01:42.390Z,16.77
2022-11-14T06:04:14.380Z,13.43
2022-11-14T06:06:42.581Z,15.75
2022-11-14T06:09:10.608Z,15.75
2022-11-14T06:11:38.671Z,12.05
2022-11-14T06:14:09.710Z,15.63
2022-11-14T06:16:38.876Z,12.02
2022-11-14T06:19:07.003Z,9.07
2022-11-14T06:21:36.353Z,15.57
2022-11-14T06:24:04.467Z,14.82
2022-11-14T06:26:33.413Z,11.95
2022-11-14T06:29:01.837Z,11.15
2022-11-14T06:31:29.866Z,16.15
2022-11-14T06:33:58.034Z,10.45
2022-11-14T06:36:26.050Z,13.65
2022-11-14T06:38:55.493Z,11.32
2022-11-14T06:41:24.019Z,14.48
2022-11-14T06:43:54.927Z,13.73
2022-11-14T06:46:24.425Z,15.20
2022-11-14T06:48:52.696Z,18.27
2022-11-14T06:51:20.706Z,19.67
2022-11-14T06:53:48.736Z,15.77
2022-11-14T06:56:20.273Z,15.85
2022-11-14T06:58:50.411Z,20.98
2022-11-14T07:01:20.500Z,17.08
2022-11-14T07:03:49.291Z,22.83
2022-11-14T07:06:19.460Z,17.33
2022-11-14T07:08:47.837Z,13.95
2022-11-14T07:11:23.865Z,18.23
2022-11-14T07:13:52.140Z,24.77
2022-11-14T07:16:20.916Z,15.50
2022-11-14T07:18:49.018Z,14.32
2022-11-14T07:21:17.123Z,13.90
2022-11-14T07:23:45.242Z,15.55
2022-11-14T07:26:13.735Z,17.65
2022-11-14T07:28:48.138Z,14.18
2022-11-14T07:31:20.732Z,16.30
2022-11-14T07:33:49.494Z,17.48
2022-11-14T07:36:18.783Z,9.70
2022-11-14T07:38:46.905Z,23.05
2022-11-14T07:41:16.637Z,18.67
2022-11-14T07:43:46.352Z,16.77
2022-11-14T07:46:16.238Z,24.90
2022-11-14T07:48:44.717Z,29.67
2022-11-14T07:51:16.895Z,37.72
2022-11-14T07:53:45.556Z,40.38
2022-11-14T07:56:13.829Z,31.42
2022-11-14T07:58:43.299Z,21.85
2022-11-14T08:01:14.360Z,39.72
2022-11-14T08:03:45.964Z,29.95
2022-11-14T08:06:16.121Z,27.52
2022-11-14T08:08:44.330Z,23.42
2022-11-14T08:11:13.163Z,22.60
2022-11-14T08:13:41.186Z,29.25
2022-11-14T08:16:13.679Z,26.90
2022-11-14T08:18:43.404Z,16.20
2022-11-14T08:21:11.397Z,29.92
2022-11-14T08:23:39.668Z,17.02
2022-11-14T08:26:07.702Z,19.65
2022-11-14T08:28:35.706Z,12.98
2022-11-14T08:31:05.028Z,30.25
2022-11-14T08:33:33.361Z,18.67
2022-11-14T08:36:03.589Z,17.42
2022-11-14T08:38:33.330Z,19.75
2022-11-14T08:41:02.317Z,23.23
2022-11-14T08:43:30.656Z,19.95
2022-11-14T08:46:01.868Z,26.02
2022-11-14T08:48:31.431Z,34.63
2022-11-14T08:50:59.788Z,28.17
2022-11-14T08:53:29.645Z,23.80
2022-11-14T08:55:57.980Z,67.43
2022-11-14T08:58:28.781Z,43.40
2022-11-14T09:01:01.109Z,25.05
2022-11-14T09:03:29.356Z,23.60
2022-11-14T09:05:57.601Z,21.48
2022-11-14T09:08:26.185Z,22.35
2022-11-14T09:10:55.612Z,34.80
2022-11-14T09:13:23.743Z,21.63
2022-11-14T09:15:51.764Z,19.40
2022-11-14T09:18:19.912Z,19.10
2022-11-14T09:20:48.024Z,21.10
2022-11-14T09:23:16.147Z,20.42
2022-11-14T09:25:44.190Z,19.40
2022-11-14T09:28:13.746Z,22.52
2022-11-14T09:30:42.130Z,18.33
2022-11-14T09:33:11.900Z,25.65
2022-11-14T09:35:40.118Z,25.65
2022-11-14T09:38:09.674Z,26.92
2022-11-14T09:40:51.926Z,20.52
2022-11-14T09:43:39.215Z,24.60
2022-11-14T09:46:17.872Z,24.77
2022-11-14T09:48:45.926Z,30.92
2022-11-14T09:51:19.075Z,41.75
2022-11-14T09:53:53.113Z,27.60
2022-11-14T09:56:25.695Z,26.50
2022-11-14T09:58:56.926Z,31.23
2022-11-14T10:01:37.381Z,29.63
2022-11-14T10:04:17.291Z,29.02
2022-11-14T10:06:55.277Z,33.70
2022-11-14T10:09:40.030Z,22.50
2022-11-14T10:12:15.390Z,25.75
2022-11-14T10:15:07.410Z,32.05
2022-11-14T10:18:00.722Z,143.05
2022-11-14T10:20:38.155Z,72.07
2022-11-14T10:23:21.544Z,69.65
2022-11-14T10:25:55.961Z,44.60
2022-11-14T10:28:50.181Z,44.25
2022-11-14T10:31:35.078Z,31.67
2022-11-14T10:34:09.558Z,27.98
2022-11-14T10:36:56.945Z,31.80
2022-11-14T10:39:31.945Z,32.30
2022-11-14T10:42:07.916Z,24.70
2022-11-14T10:44:40.560Z,30.67
2022-11-14T10:47:15.480Z,36.28
2022-11-14T10:49:47.511Z,28.92
2022-11-14T10:52:20.069Z,25.85
2022-11-14T10:54:54.315Z,34.10
2022-11-14T10:57:23.671Z,26.52
2022-11-14T10:59:51.846Z,39.33
2022-11-14T11:02:21.301Z,25.80
2022-11-14T11:04:49.383Z,20.55
2022-11-14T11:07:42.951Z,27.75
2022-11-14T11:10:39.735Z,20.03
2022-11-14T11:13:07.846Z,15.70
2022-11-14T11:15:42.603Z,23.95
2022-11-14T11:21:10.367Z,12.35
2022-11-14T11:23:48.954Z,31.50
2022-11-14T11:26:20.448Z,52.63
2022-11-14T11:29:03.982Z,23.38
2022-11-14T11:31:51.612Z,23.85
2022-11-14T11:34:25.530Z,15.80
2022-11-14T11:39:29.351Z,18.38
2022-11-14T11:42:09.332Z,14.43
2022-11-14T11:44:44.995Z,24.33
2022-11-14T11:47:17.560Z,24.73
2022-11-14T11:49:53.769Z,28.75
2022-11-14T11:52:34.298Z,20.13
2022-11-14T11:55:15.082Z,23.77
2022-11-14T11:57:45.856Z,24.33
2022-11-14T12:00:18.206Z,11.68
2022-11-14T12:02:50.378Z,16.77
2022-11-14T12:05:24.958Z,16.08
2022-11-14T12:08:01.530Z,11.88
2022-11-14T12:10:33.634Z,13.07
2022-11-14T12:13:36.557Z,8.93
2022-11-14T12:16:24.713Z,14.30
2022-11-14T12:19:33.079Z,7.45
2022-11-14T12:22:18.723Z,9.45
2022-11-14T12:24:58.768Z,11.80
2022-11-14T12:27:43.573Z,12.77
2022-11-14T12:30:16.439Z,9.13
2022-11-14T12:32:48.944Z,24.98
2022-11-14T12:35:22.475Z,27.77
2022-11-14T12:37:55.776Z,17.95
2022-11-14T12:40:32.150Z,18.08
2022-11-14T12:43:01.673Z,18.13
2022-11-14T12:46:01.796Z,31.35
2022-11-14T12:48:35.894Z,19.20
2022-11-14T12:51:05.443Z,32.58
2022-11-14T12:53:46.678Z,17.77
2022-11-14T12:56:36.539Z,12.13
2022-11-14T12:59:30.552Z,9.55
2022-11-14T13:02:34.982Z,10.10
2022-11-14T13:05:25.070Z,13.02
2022-11-14T13:08:10.552Z,13.30
2022-11-14T13:10:39.693Z,15.90
2022-11-14T13:13:28.841Z,17.73
2022-11-14T13:16:15.964Z,38.78
2022-11-14T13:19:11.367Z,9.75
2022-11-14T13:21:49.086Z,8.63
2022-11-14T13:24:19.330Z,7.13
2022-11-14T13:26:52.910Z,3.20
2022-11-14T13:29:58.157Z,12.15
2022-11-14T13:32:55.768Z,4.30
2022-11-14T13:35:48.380Z,6.53
2022-11-14T13:38:51.903Z,10.13
2022-11-14T13:41:47.965Z,4.13
2022-11-14T13:44:39.738Z,6.85
2022-11-14T13:47:33.828Z,8.18
2022-11-14T13:50:05.351Z,5.10
2022-11-14T13:52:35.794Z,11.57
2022-11-14T13:55:04.191Z,7.18
2022-11-14T13:57:45.669Z,4.95
2022-11-14T14:00:20.443Z,5.60
2022-11-14T14:03:33.861Z,4.03
2022-11-14T14:06:21.067Z,4.78
2022-11-14T14:09:09.639Z,6.72
2022-11-14T14:11:52.110Z,4.80
2022-11-14T14:14:39.518Z,9.98
2022-11-14T14:17:17.441Z,5.93
2022-11-14T14:20:01.030Z,9.30
2022-11-14T14:22:46.833Z,6.32
2022-11-14T14:25:23.022Z,8.68
2022-11-14T14:28:01.555Z,10.10
2022-11-14T14:30:29.661Z,17.15
2022-11-14T14:33:04.891Z,32.70
2022-11-14T14:35:39.071Z,6.07
2022-11-14T14:38:14.394Z,10.23
2022-11-14T14:43:25.078Z,7.60
2022-11-14T14:45:55.002Z,4.35
2022-11-14T14:48:26.789Z,9.88
2022-11-14T14:50:56.646Z,7.05
2022-11-14T14:53:28.701Z,2.72
2022-11-14T14:55:58.313Z,5.07
2022-11-14T14:58:29.712Z,4.50
2022-11-14T15:01:01.347Z,3.72
2022-11-14T15:03:36.833Z,2.65
2022-11-14T15:06:08.033Z,9.88
2022-11-14T15:08:40.439Z,2.92
2022-11-14T15:11:09.007Z,9.50
2022-11-14T15:13:38.852Z,9.48
2022-11-14T15:16:08.215Z,4.20
2022-11-14T15:18:37.292Z,8.63
2022-11-14T15:21:15.201Z,6.03
2022-11-14T15:23:44.944Z,7.72
2022-11-14T15:26:16.933Z,8.63
2022-11-14T15:28:45.721Z,6.45
2022-11-14T15:31:20.426Z,4.05
2022-11-14T15:34:02.979Z,2.63
2022-11-14T15:36:31.143Z,7.32
2022-11-14T15:39:02.593Z,5.38
2022-11-14T15:41:31.615Z,4.55
2022-11-14T15:44:03.219Z,5.07
2022-11-14T15:46:41.613Z,17.25
2022-11-14T15:49:11.607Z,3.65
2022-11-14T15:51:42.900Z,5.15
2022-11-14T15:54:24.364Z,2.40
2022-11-14T15:56:52.631Z,5.90
2022-11-14T15:59:21.005Z,6.28
2022-11-14T16:01:52.609Z,2.15
2022-11-14T16:04:22.475Z,4.80
2022-11-14T16:06:50.786Z,6.03
2022-11-14T16:09:22.291Z,5.43
2022-11-14T16:11:50.399Z,4.53
2022-11-14T16:14:18.617Z,5.38
2022-11-14T16:16:46.728Z,7.90
2022-11-14T16:19:17.177Z,3.33
2022-11-14T16:21:45.901Z,2.28
2022-11-14T16:24:18.195Z,6.00
2022-11-14T16:26:48.737Z,3.88
2022-11-14T16:29:17.547Z,3.13
2022-11-14T16:31:45.700Z,1.92
2022-11-14T16:34:19.378Z,2.13
2022-11-14T16:36:48.937Z,3.78
2022-11-14T16:39:17.122Z,3.08
2022-11-14T16:41:45.295Z,4.07
2022-11-14T16:44:17.820Z,2.92
2022-11-14T16:46:46.598Z,4.63
2022-11-14T16:49:16.167Z,3.72
2022-11-14T16:51:49.044Z,1.85
2022-11-14T16:54:18.114Z,5.78
2022-11-14T16:56:46.321Z,3.88
2022-11-14T16:59:15.947Z,2.65
2022-11-14T17:01:44.153Z,2.38
2022-11-14T17:04:12.761Z,3.33
2022-11-14T17:06:41.120Z,4.72
2022-11-14T17:09:09.422Z,3.60
2022-11-14T17:11:37.539Z,4.03
2022-11-14T17:14:05.707Z,2.95
2022-11-14T17:16:35.234Z,6.30
2022-11-14T17:19:03.580Z,5.25
2022-11-14T17:21:32.778Z,5.80
2022-11-14T17:24:02.852Z,4.65
2022-11-14T17:26:31.359Z,2.28
2022-11-14T17:28:59.654Z,6.68
2022-11-14T17:31:27.663Z,3.88
2022-11-14T17:33:58.700Z,4.00
2022-11-14T17:36:29.053Z,7.95
2022-11-14T17:38:57.634Z,4.57
2022-11-14T17:41:26.035Z,5.80
2022-11-14T17:43:56.852Z,4.32
2022-11-14T17:46:24.977Z,9.77
2022-11-14T17:48:53.122Z,2.67
2022-11-14T17:51:22.704Z,4.03
2022-11-14T17:53:51.064Z,3.42
2022-11-14T17:56:21.676Z,5.85
2022-11-14T17:58:51.787Z,3.25
2022-11-14T18:01:22.314Z,13.27
2022-11-14T18:03:50.662Z,4.85
2022-11-14T18:06:20.798Z,6.93
2022-11-14T18:08:50.560Z,4.32
2022-11-14T18:11:20.862Z,8.75
2022-11-14T18:13:49.346Z,13.75
2022-11-14T18:16:19.678Z,9.25
2022-11-14T18:18:47.953Z,3.58
2022-11-14T18:21:17.886Z,4.07
2022-11-14T18:23:51.204Z,4.28
2022-11-14T18:26:27.131Z,16.25
2022-11-14T18:28:56.742Z,8.02
2022-11-14T18:31:33.109Z,8.55
2022-11-14T18:34:02.891Z,5.80
2022-11-14T18:36:31.271Z,3.95
2022-11-14T18:38:59.417Z,4.05
2022-11-14T18:41:29.030Z,2.92
2022-11-14T18:43:58.239Z,3.67
2022-11-14T18:46:27.087Z,5.97
2022-11-14T18:48:57.608Z,3.70
2022-11-14T18:51:28.054Z,6.20
2022-11-14T18:53:59.429Z,10.70
2022-11-14T18:56:29.132Z,5.00
2022-11-14T18:58:58.244Z,3.85
2022-11-14T19:01:29.825Z,6.88
2022-11-14T19:04:00.339Z,3.97
2022-11-14T19:06:29.088Z,3.80
2022-11-14T19:08:58.270Z,8.30
2022-11-14T19:11:44.182Z,6.22
2022-11-14T19:14:13.876Z,3.65
2022-11-14T19:16:42.045Z,3.45
2022-11-14T19:19:10.830Z,6.97
2022-11-14T19:21:39.547Z,3.22
2022-11-14T19:24:11.617Z,6.90
2022-11-14T19:26:42.773Z,4.40
2022-11-14T19:29:15.276Z,6.93
2022-11-14T19:31:46.514Z,3.72
2022-11-14T19:34:17.393Z,5.80
2022-11-14T19:36:59.250Z,6.88
2022-11-14T19:39:29.229Z,2.55
2022-11-14T19:42:00.584Z,10.95
2022-11-14T19:44:29.801Z,6.15
2022-11-14T19:47:00.897Z,7.75
2022-11-14T19:49:31.172Z,3.88
2022-11-14T19:52:01.364Z,8.02
2022-11-14T19:54:30.361Z,3.38
2022-11-14T19:56:58.608Z,3.00
2022-11-14T19:59:28.912Z,4.50
2022-11-14T20:01:58.323Z,4.57
2022-11-14T20:04:29.154Z,2.70
2022-11-14T20:06:57.231Z,4.53
2022-11-14T20:09:25.388Z,7.32
2022-11-14T20:11:53.607Z,8.27
2022-11-14T20:14:21.713Z,4.38
2022-11-14T20:16:49.865Z,3.42
2022-11-14T20:19:19.565Z,2.42
2022-11-14T20:21:47.736Z,3.20
2022-11-14T20:24:21.572Z,2.10
2022-11-14T20:26:49.855Z,2.72
2022-11-14T20:29:18.179Z,4.45
2022-11-14T20:31:46.435Z,4.32
2022-11-14T20:34:14.605Z,4.68
2022-11-14T20:37:09.193Z,1.48
2022-11-14T20:39:32.195Z,5.18
2022-11-14T20:42:00.270Z,2.42
2022-11-14T20:44:28.307Z,3.00
2022-11-14T20:46:57.209Z,4.38
2022-11-14T20:49:25.378Z,2.10
2022-11-14T20:51:54.801Z,2.70
2022-11-14T20:54:22.817Z,3.75
2022-11-14T20:56:50.858Z,3.88
2022-11-14T20:59:18.909Z,5.97
2022-11-14T21:01:46.929Z,2.88
2022-11-14T21:04:14.959Z,5.60
2022-11-14T21:06:42.991Z,3.95
2022-11-14T21:09:12.496Z,2.45
2022-11-14T21:11:40.476Z,1.83
2022-11-14T21:14:09.414Z,2.63
2022-11-14T21:16:39.553Z,6.43
2022-11-14T21:19:08.497Z,6.05
2022-11-14T21:21:37.981Z,6.93
2022-11-14T21:24:06.859Z,5.38
2022-11-14T21:26:38.764Z,4.85
2022-11-14T21:29:09.162Z,4.82
2022-11-14T21:31:38.856Z,7.35
2022-11-14T21:34:08.556Z,3.30
2022-11-14T21:36:46.044Z,2.95
2022-11-14T21:39:16.422Z,6.65
2022-11-14T21:41:48.436Z,10.85
2022-11-14T21:44:18.026Z,6.78
2022-11-14T21:46:48.776Z,7.05
2022-11-14T21:49:17.125Z,4.68
2022-11-14T21:51:45.117Z,2.70
2022-11-14T21:54:13.493Z,5.65
2022-11-14T21:56:41.629Z,4.13
2022-11-14T21:59:18.981Z,2.50
2022-11-14T22:02:05.872Z,4.32
2022-11-14T22:04:34.578Z,5.55
2022-11-14T22:07:04.916Z,2.95
2022-11-14T22:09:33.064Z,6.20
2022-11-14T22:12:01.537Z,7.68
2022-11-14T22:14:30.945Z,7.57
2022-11-14T22:16:59.188Z,3.38
2022-11-14T22:19:27.437Z,3.75
2022-11-14T22:21:55.472Z,8.18
2022-11-14T22:24:23.838Z,6.35
2022-11-14T22:26:51.896Z,8.07
2022-11-14T22:29:20.123Z,9.15
2022-11-14T22:31:53.065Z,9.75
2022-11-14T22:34:21.170Z,4.18
2022-11-14T22:36:49.217Z,4.25
2022-11-14T22:39:17.232Z,5.45
2022-11-14T22:41:45.257Z,7.88
2022-11-14T22:44:13.280Z,9.77
2022-11-14T22:46:41.386Z,5.25
2022-11-14T22:49:10.832Z,12.20
2022-11-14T22:51:38.855Z,8.85
2022-11-14T22:54:06.967Z,4.30
2022-11-14T22:56:34.933Z,3.47
2022-11-14T22:59:03.145Z,4.00
2022-11-14T23:01:32.604Z,6.93
2022-11-14T23:04:02.139Z,8.98
2022-11-14T23:06:33.592Z,4.55
2022-11-14T23:09:02.691Z,7.30
2022-11-14T23:11:32.106Z,4.53
2022-11-14T23:14:01.597Z,6.15
2022-11-14T23:16:31.577Z,8.70
2022-11-14T23:19:01.906Z,8.07
2022-11-14T23:21:33.197Z,4.05
2022-11-14T23:24:02.849Z,3.03
2022-11-14T23:26:32.092Z,5.18
2022-11-14T23:29:00.540Z,5.65
2022-11-14T23:31:28.783Z,3.83
2022-11-14T23:33:58.232Z,3.75
2022-11-14T23:36:26.538Z,5.78
2022-11-14T23:38:56.231Z,5.88
2022-11-14T23:41:26.790Z,7.75
2022-11-14T23:43:57.608Z,2.53
2022-11-14T23:46:26.789Z,4.43
2022-11-14T23:48:54.860Z,8.95
2022-11-14T23:51:22.993Z,2.65
2022-11-14T23:53:52.053Z,3.35
2022-11-14T23:56:21.488Z,2.42
2022-11-14T23:58:50.911Z,4.28
